Time;durP1;ratioP1;P1;durP2;ratioP2;P2;SDS_P1;SDS_P2;PMS_P1;PMS_P2;Temp;Humidity;BMP_temperature;BMP_pressure;BME280_temperature;BME280_humidity;BME280_pressure;Samples;Min_cycle;Max_cycle;Signal;HPM_P1;HPM_P2
2023/02/22 00:00:51;;;;;;;2.28;1.20;;;8.80;99.90;;;;;;4420614;32;20522;-63
2023/02/22 00:03:23;;;;;;;0.70;0.70;;;8.80;99.90;;;;;;4432953;32;20077;-64
2023/02/22 00:05:52;;;;;;;0.30;0.30;;;8.70;99.90;;;;;;4422473;32;20082;-62
2023/02/22 00:08:21;;;;;;;0.65;0.65;;;8.80;99.90;;;;;;4421975;32;20132;-64
2023/02/22 00:10:50;;;;;;;5.57;1.65;;;8.80;99.90;;;;;;4417951;32;20426;-63
2023/02/22 00:13:17;;;;;;;0.30;0.30;;;8.80;99.90;;;;;;4419953;32;20115;-64
2023/02/22 00:15:43;;;;;;;15.77;1.85;;;8.70;99.90;;;;;;4417597;32;20092;-63
2023/02/22 00:18:11;;;;;;;3.53;1.20;;;8.80;99.90;;;;;;4430635;32;20068;-64
2023/02/22 00:20:37;;;;;;;0.50;0.50;;;8.80;99.90;;;;;;4415495;32;20509;-63
2023/02/22 00:23:06;;;;;;;0.57;0.57;;;8.80;99.90;;;;;;4417821;32;20062;-63
2023/02/22 00:25:33;;;;;;;0.50;0.50;;;8.70;99.90;;;;;;4418362;32;20097;-63
2023/02/22 00:27:59;;;;;;;3.30;1.37;;;8.70;99.90;;;;;;4427444;32;20101;-63
2023/02/22 00:30:27;;;;;;;0.93;0.43;;;8.60;99.90;;;;;;4412518;32;20086;-63
2023/02/22 00:32:54;;;;;;;1.75;0.88;;;8.60;99.90;;;;;;4416122;32;20394;-65
2023/02/22 00:35:22;;;;;;;0.50;0.50;;;8.60;99.90;;;;;;4418454;32;20140;-64
2023/02/22 00:37:49;;;;;;;0.77;0.77;;;8.50;99.90;;;;;;4434340;32;20057;-63
2023/02/22 00:40:17;;;;;;;0.40;0.40;;;8.50;99.90;;;;;;4416598;32;20108;-63
2023/02/22 00:42:44;;;;;;;9.35;1.95;;;8.60;99.90;;;;;;4417706;32;20081;-64
2023/02/22 00:45:10;;;;;;;2.00;0.77;;;8.60;99.90;;;;;;4417637;32;20768;-62
2023/02/22 00:47:35;;;;;;;1.77;1.33;;;8.60;99.90;;;;;;4431910;32;20108;-62
2023/02/22 00:50:01;;;;;;;1.75;0.85;;;8.40;99.90;;;;;;4436586;32;20093;-63
2023/02/22 00:52:27;;;;;;;0.70;0.70;;;8.40;99.90;;;;;;4433532;32;20422;-63
2023/02/22 00:54:54;;;;;;;0.47;0.47;;;8.40;99.90;;;;;;4425273;32;20069;-63
2023/02/22 00:57:20;;;;;;;10.88;1.27;;;8.40;99.90;;;;;;4419356;32;20136;-63
2023/02/22 00:59:45;;;;;;;14.45;0.50;;;8.40;99.90;;;;;;4437823;32;20118;-63
2023/02/22 01:02:12;;;;;;;5.72;1.55;;;8.40;99.90;;;;;;4435890;32;20473;-63
2023/02/22 01:04:37;;;;;;;1.10;1.08;;;8.40;99.90;;;;;;4433273;32;20073;-64
2023/02/22 01:07:03;;;;;;;0.70;0.70;;;8.30;99.90;;;;;;4434855;32;20916;-64
2023/02/22 01:09:28;;;;;;;0.95;0.90;;;8.30;99.90;;;;;;4432305;32;20134;-63
2023/02/22 01:11:55;;;;;;;0.50;0.50;;;8.20;99.90;;;;;;4433937;32;20081;-63
2023/02/22 01:14:22;;;;;;;8.57;2.45;;;8.10;99.90;;;;;;4409804;32;20124;-63
2023/02/22 01:16:49;;;;;;;1.58;1.15;;;7.90;99.90;;;;;;4433061;32;20112;-63
2023/02/22 01:19:15;;;;;;;0.50;0.50;;;7.90;99.90;;;;;;4434742;32;20076;-63
2023/02/22 01:21:40;;;;;;;2.87;1.08;;;7.90;99.90;;;;;;4434527;32;20574;-63
2023/02/22 01:24:06;;;;;;;3.33;1.33;;;7.90;99.90;;;;;;4432311;32;20547;-63
2023/02/22 01:26:32;;;;;;;6.60;2.25;;;8.00;99.90;;;;;;4430793;32;20069;-63
2023/02/22 01:28:57;;;;;;;1.10;1.05;;;8.00;99.90;;;;;;4431576;32;20065;-63
2023/02/22 01:31:23;;;;;;;0.37;0.37;;;8.00;99.90;;;;;;4430622;32;20073;-64
2023/02/22 01:33:49;;;;;;;37.22;1.52;;;7.90;99.90;;;;;;4432964;32;20469;-63
2023/02/22 01:36:17;;;;;;;9.23;3.22;;;7.90;99.90;;;;;;4416142;32;20078;-64
2023/02/22 01:38:44;;;;;;;0.70;0.70;;;7.90;99.90;;;;;;4423188;32;20078;-66
2023/02/22 01:41:10;;;;;;;0.80;0.80;;;7.70;99.90;;;;;;4446477;32;20434;-63
2023/02/22 01:43:35;;;;;;;3.15;1.55;;;7.50;99.90;;;;;;4429537;32;20126;-64
2023/02/22 01:46:22;;;;;;;21.58;1.58;;;7.40;99.90;;;;;;4445971;32;20128;-63
2023/02/22 01:48:58;;;;;;;0.60;0.60;;;7.40;99.90;;;;;;4420554;32;20061;-63
2023/02/22 01:51:29;;;;;;;4.68;1.98;;;7.30;99.90;;;;;;4428669;32;20505;-63
2023/02/22 01:54:00;;;;;;;1.67;1.33;;;7.40;99.90;;;;;;4430503;32;20065;-63
2023/02/22 01:56:28;;;;;;;18.30;2.05;;;7.50;99.90;;;;;;4434451;32;20176;-63
2023/02/22 01:59:01;;;;;;;1.98;0.88;;;7.50;99.90;;;;;;4433205;32;20065;-63
2023/02/22 02:01:28;;;;;;;0.88;0.82;;;7.60;99.90;;;;;;4432066;32;20089;-64
2023/02/22 02:03:57;;;;;;;5.72;1.20;;;7.60;99.90;;;;;;4430622;32;20108;-64
2023/02/22 02:06:23;;;;;;;4.07;1.08;;;7.60;99.90;;;;;;4431215;32;20069;-66
2023/02/22 02:08:58;;;;;;;6.93;1.95;;;7.60;99.90;;;;;;4416037;32;20077;-64
2023/02/22 02:11:25;;;;;;;1.02;1.00;;;7.60;99.90;;;;;;4433841;32;20122;-64
2023/02/22 02:13:54;;;;;;;10.85;1.65;;;7.60;99.90;;;;;;4414751;32;20620;-63
2023/02/22 02:16:21;;;;;;;0.55;0.55;;;7.50;99.90;;;;;;4415944;32;20085;-63
2023/02/22 02:18:47;;;;;;;0.40;0.40;;;7.60;99.90;;;;;;4409519;32;20077;-65
2023/02/22 02:21:42;;;;;;;0.32;0.32;;;7.60;99.90;;;;;;4431142;32;20617;-63
2023/02/22 02:24:27;;;;;;;0.80;0.80;;;7.40;99.90;;;;;;4423724;32;20644;-62
2023/02/22 02:27:16;;;;;;;0.62;0.62;;;7.50;99.90;;;;;;4431139;32;20124;-63
2023/02/22 02:30:18;;;;;;;0.98;0.88;;;7.50;99.90;;;;;;4420790;32;20093;-63
2023/02/22 02:32:51;;;;;;;2.25;1.10;;;7.50;99.90;;;;;;4418121;32;20153;-63
2023/02/22 02:35:29;;;;;;;1.98;1.52;;;7.60;99.90;;;;;;4413451;32;20085;-64
2023/02/22 02:38:20;;;;;;;6.12;1.85;;;7.70;99.90;;;;;;4432655;32;20097;-65
2023/02/22 02:41:03;;;;;;;2.17;1.27;;;7.60;99.90;;;;;;4416124;32;20465;-63
2023/02/22 02:43:41;;;;;;;1.95;1.42;;;7.50;99.90;;;;;;4430069;32;20085;-64
2023/02/22 02:46:32;;;;;;;0.43;0.43;;;7.70;99.90;;;;;;4418942;32;20080;-64
2023/02/22 02:49:02;;;;;;;2.12;1.33;;;7.70;99.90;;;;;;4418069;32;20451;-63
2023/02/22 02:51:32;;;;;;;3.85;1.80;;;7.60;99.90;;;;;;4430366;32;20064;-63
2023/02/22 02:53:59;;;;;;;1.15;1.15;;;7.50;99.90;;;;;;4416494;32;20098;-62
2023/02/22 02:56:24;;;;;;;0.40;0.40;;;7.50;99.90;;;;;;4434929;32;20615;-63
2023/02/22 02:58:52;;;;;;;2.20;1.30;;;7.50;99.90;;;;;;4436112;32;20085;-63
2023/02/22 03:01:38;;;;;;;3.67;1.30;;;7.50;99.90;;;;;;4412411;32;20085;-64
2023/02/22 03:04:32;;;;;;;1.65;0.73;;;7.40;99.90;;;;;;4436881;32;20068;-63
2023/02/22 03:07:21;;;;;;;0.85;0.85;;;7.30;99.90;;;;;;4422188;32;20093;-64
2023/02/22 03:10:24;;;;;;;22.70;1.12;;;7.30;99.90;;;;;;4422074;32;20065;-64
2023/02/22 03:13:29;;;;;;;3.20;1.27;;;7.40;99.90;;;;;;4420152;32;20125;-63
2023/02/22 03:16:14;;;;;;;0.40;0.40;;;7.50;99.90;;;;;;4417897;32;20485;-63
2023/02/22 03:19:04;;;;;;;0.50;0.50;;;7.70;99.90;;;;;;4434087;32;20374;-63
2023/02/22 03:21:33;;;;;;;0.95;0.93;;;7.50;99.90;;;;;;4417120;32;20106;-63
2023/02/22 03:24:08;;;;;;;0.68;0.62;;;7.40;99.90;;;;;;4427831;32;20077;-63
2023/02/22 03:26:42;;;;;;;4.62;1.42;;;7.30;99.90;;;;;;4417185;32;20180;-64
2023/02/22 03:29:10;;;;;;;6.93;2.20;;;7.30;99.90;;;;;;4432988;32;20103;-62
2023/02/22 03:31:40;;;;;;;1.75;1.15;;;7.40;99.90;;;;;;4416018;32;20483;-62
2023/02/22 03:34:15;;;;;;;2.70;2.05;;;7.40;99.90;;;;;;4416127;32;20749;-62
2023/02/22 03:36:48;;;;;;;0.62;0.62;;;7.30;99.90;;;;;;4431998;32;20081;-63
2023/02/22 03:39:17;;;;;;;0.43;0.43;;;7.40;99.90;;;;;;4433746;32;20065;-64
2023/02/22 03:41:47;;;;;;;1.37;1.02;;;7.40;99.90;;;;;;4419008;32;20065;-63
2023/02/22 03:44:19;;;;;;;4.35;1.58;;;7.40;99.90;;;;;;4430233;32;20092;-64
2023/02/22 03:46:47;;;;;;;3.15;1.80;;;7.40;99.90;;;;;;4434755;32;20062;-63
2023/02/22 03:49:25;;;;;;;0.40;0.40;;;7.40;99.90;;;;;;4435560;32;20462;-63
2023/02/22 03:51:50;;;;;;;1.85;1.10;;;7.30;99.90;;;;;;4420976;32;20085;-64
2023/02/22 03:54:17;;;;;;;2.92;1.33;;;7.50;99.90;;;;;;4415753;32;20446;-63
2023/02/22 03:56:51;;;;;;;0.35;0.35;;;7.60;99.90;;;;;;4417719;32;20077;-63
2023/02/22 03:59:17;;;;;;;0.75;0.75;;;7.70;99.90;;;;;;4435861;32;20072;-63
2023/02/22 04:01:43;;;;;;;1.48;0.55;;;7.70;99.90;;;;;;4417142;32;20065;-63
2023/02/22 04:04:08;;;;;;;0.55;0.55;;;7.70;99.90;;;;;;4434808;32;20061;-63
2023/02/22 04:06:34;;;;;;;0.50;0.50;;;7.70;99.90;;;;;;4435116;32;20135;-64
2023/02/22 04:08:59;;;;;;;0.65;0.65;;;7.70;99.90;;;;;;4434894;32;20186;-63
2023/02/22 04:11:25;;;;;;;0.60;0.52;;;7.60;99.90;;;;;;4438088;32;20056;-63
2023/02/22 04:13:50;;;;;;;1.92;1.08;;;7.50;99.90;;;;;;4434655;32;20104;-63
2023/02/22 04:16:16;;;;;;;0.50;0.50;;;7.60;99.90;;;;;;4437833;32;20066;-65
2023/02/22 04:18:41;;;;;;;2.50;0.95;;;7.60;99.90;;;;;;4431681;32;20057;-63
2023/02/22 04:21:08;;;;;;;18.02;0.98;;;7.60;99.90;;;;;;4434824;32;20065;-65
2023/02/22 04:23:33;;;;;;;1.30;0.85;;;7.60;99.90;;;;;;4436574;32;20061;-63
2023/02/22 04:25:59;;;;;;;0.45;0.45;;;7.60;99.90;;;;;;4435278;32;20548;-63
2023/02/22 04:28:24;;;;;;;0.60;0.60;;;7.60;99.90;;;;;;4434197;32;20398;-63
2023/02/22 04:30:49;;;;;;;0.43;0.43;;;7.70;99.90;;;;;;4431443;32;20077;-63
2023/02/22 04:33:15;;;;;;;22.48;1.02;;;7.60;99.90;;;;;;4437908;32;20207;-63
2023/02/22 04:35:40;;;;;;;10.63;1.20;;;7.60;99.90;;;;;;4435559;32;20483;-64
2023/02/22 04:38:08;;;;;;;2.05;1.77;;;7.70;99.90;;;;;;4435952;32;20094;-64
2023/02/22 04:40:33;;;;;;;6.87;1.73;;;7.70;99.90;;;;;;4416839;32;20128;-64
2023/02/22 04:42:59;;;;;;;29.52;1.90;;;7.70;99.90;;;;;;4436870;32;20208;-62
2023/02/22 04:45:24;;;;;;;0.50;0.50;;;7.70;99.90;;;;;;4435354;32;20077;-62
2023/02/22 04:47:50;;;;;;;3.25;0.95;;;7.70;99.90;;;;;;4419873;32;20052;-63
2023/02/22 04:50:16;;;;;;;1.15;0.62;;;7.70;99.90;;;;;;4430005;32;20077;-63
2023/02/22 04:52:41;;;;;;;2.45;1.30;;;7.70;99.90;;;;;;4433043;32;21031;-63
2023/02/22 04:55:07;;;;;;;12.57;1.37;;;7.60;99.90;;;;;;4434603;32;20299;-63
2023/02/22 04:57:32;;;;;;;2.65;0.82;;;7.50;99.90;;;;;;4434322;32;20124;-64
2023/02/22 04:59:58;;;;;;;0.50;0.50;;;7.40;99.90;;;;;;4438751;32;20140;-63
2023/02/22 05:02:24;;;;;;;0.75;0.68;;;7.30;99.90;;;;;;4419648;32;20069;-63
2023/02/22 05:04:50;;;;;;;2.67;0.68;;;7.40;99.90;;;;;;4432808;32;20061;-63
2023/02/22 05:07:16;;;;;;;0.30;0.30;;;7.40;99.90;;;;;;4432908;32;20553;-62
2023/02/22 05:09:42;;;;;;;0.65;0.65;;;7.40;99.90;;;;;;4421290;32;20444;-63
2023/02/22 05:12:08;;;;;;;0.65;0.65;;;7.30;99.90;;;;;;4412287;32;20077;-63
2023/02/22 05:14:34;;;;;;;1.20;0.88;;;7.40;99.90;;;;;;4436489;32;20061;-63
2023/02/22 05:17:00;;;;;;;1.50;1.40;;;7.50;99.90;;;;;;4435654;32;20113;-63
2023/02/22 05:19:26;;;;;;;0.70;0.70;;;7.50;99.90;;;;;;4433273;32;20077;-64
2023/02/22 05:21:52;;;;;;;0.47;0.47;;;7.50;99.90;;;;;;4425591;32;20085;-63
2023/02/22 05:24:17;;;;;;;4.53;1.62;;;7.40;99.90;;;;;;4429497;32;20065;-62
2023/02/22 05:26:43;;;;;;;0.73;0.73;;;7.30;99.90;;;;;;4431249;32;20126;-65
2023/02/22 05:29:09;;;;;;;0.40;0.40;;;7.30;99.90;;;;;;4421045;32;20073;-63
2023/02/22 05:31:35;;;;;;;2.55;1.52;;;7.30;99.90;;;;;;4431750;32;20074;-63
2023/02/22 05:34:00;;;;;;;0.70;0.70;;;7.30;99.90;;;;;;4437307;32;20097;-62
2023/02/22 05:36:26;;;;;;;0.52;0.47;;;7.30;99.90;;;;;;4432633;32;20086;-63
2023/02/22 05:38:52;;;;;;;4.37;2.35;;;7.30;99.90;;;;;;4431420;32;20060;-63
2023/02/22 05:41:18;;;;;;;4.40;1.02;;;7.30;99.90;;;;;;4431386;32;20159;-63
2023/02/22 05:43:44;;;;;;;2.05;1.05;;;7.30;99.90;;;;;;4431369;32;20165;-63
2023/02/22 05:46:10;;;;;;;3.55;1.90;;;7.40;99.90;;;;;;4420675;32;20116;-63
2023/02/22 05:48:35;;;;;;;1.35;1.20;;;7.30;99.90;;;;;;4428315;32;20069;-65
2023/02/22 05:51:02;;;;;;;0.68;0.68;;;7.30;99.90;;;;;;4436204;32;20057;-63
2023/02/22 05:53:28;;;;;;;1.02;0.68;;;7.20;99.90;;;;;;4415839;32;20065;-63
2023/02/22 05:55:53;;;;;;;0.95;0.90;;;7.20;99.90;;;;;;4420358;32;20512;-62
2023/02/22 05:58:19;;;;;;;5.82;1.70;;;7.30;99.90;;;;;;4431680;32;20525;-63
2023/02/22 06:00:44;;;;;;;1.30;0.65;;;7.30;99.90;;;;;;4430422;32;20399;-62
2023/02/22 06:03:11;;;;;;;3.53;0.93;;;7.30;99.90;;;;;;4429168;32;20123;-63
2023/02/22 06:05:37;;;;;;;2.55;1.20;;;7.30;99.90;;;;;;4413961;32;20081;-63
2023/02/22 06:08:04;;;;;;;1.67;0.80;;;7.30;99.90;;;;;;4419496;32;20374;-63
2023/02/22 06:10:30;;;;;;;1.35;1.12;;;7.20;99.90;;;;;;4417251;32;20174;-63
2023/02/22 06:12:56;;;;;;;1.65;0.88;;;7.20;99.90;;;;;;4405047;32;20095;-62
2023/02/22 06:15:23;;;;;;;2.72;1.25;;;7.20;99.90;;;;;;4414864;32;20070;-63
2023/02/22 06:17:50;;;;;;;0.50;0.50;;;7.30;99.90;;;;;;4386333;32;20617;-62
2023/02/22 06:20:18;;;;;;;3.12;1.20;;;7.30;99.90;;;;;;4426231;32;20081;-62
2023/02/22 06:22:47;;;;;;;10.48;2.20;;;7.30;99.90;;;;;;4416088;32;20085;-62
2023/02/22 06:25:16;;;;;;;2.00;0.90;;;7.30;99.90;;;;;;4432186;32;20529;-62
2023/02/22 06:27:41;;;;;;;6.43;1.15;;;7.30;99.90;;;;;;4417080;32;20556;-63
2023/02/22 06:30:08;;;;;;;0.77;0.52;;;7.40;99.90;;;;;;4414098;32;20081;-64
2023/02/22 06:32:34;;;;;;;0.70;0.70;;;7.50;99.90;;;;;;4392386;32;20085;-63
2023/02/22 06:34:59;;;;;;;2.72;1.35;;;7.50;99.90;;;;;;4422981;32;20168;-63
2023/02/22 06:37:25;;;;;;;0.37;0.37;;;7.40;99.90;;;;;;4420762;32;20100;-63
2023/02/22 06:39:50;;;;;;;2.20;1.00;;;7.40;99.90;;;;;;4429047;32;20073;-62
2023/02/22 06:42:16;;;;;;;0.37;0.37;;;7.50;99.90;;;;;;4424887;32;20081;-63
2023/02/22 06:44:42;;;;;;;1.15;1.12;;;7.50;99.90;;;;;;4420984;32;20559;-63
2023/02/22 06:47:07;;;;;;;6.35;1.35;;;7.50;99.90;;;;;;4421303;32;20192;-65
2023/02/22 06:49:33;;;;;;;27.52;1.15;;;7.60;99.90;;;;;;4424064;32;20832;-65
2023/02/22 06:51:58;;;;;;;7.32;1.23;;;7.60;99.90;;;;;;4395997;32;20113;-64
2023/02/22 06:54:24;;;;;;;4.68;1.98;;;7.60;99.90;;;;;;4408383;32;20808;-62
2023/02/22 06:56:49;;;;;;;1.30;1.20;;;7.60;99.90;;;;;;4394892;32;20702;-66
2023/02/22 06:59:15;;;;;;;0.50;0.50;;;7.60;99.90;;;;;;4395100;32;20101;-64
2023/02/22 07:01:41;;;;;;;5.60;1.12;;;7.60;99.90;;;;;;4387556;32;20741;-64
2023/02/22 07:04:07;;;;;;;4.00;0.98;;;7.60;99.90;;;;;;4377669;32;20081;-64
2023/02/22 07:06:32;;;;;;;0.50;0.50;;;7.60;99.90;;;;;;4387281;32;20080;-65
2023/02/22 07:08:58;;;;;;;0.50;0.50;;;7.70;99.90;;;;;;4390151;32;20089;-64
2023/02/22 07:11:23;;;;;;;2.28;1.70;;;7.70;99.90;;;;;;4399878;32;20098;-64
2023/02/22 07:13:49;;;;;;;3.20;1.45;;;7.70;99.90;;;;;;4402180;32;20103;-64
2023/02/22 07:16:14;;;;;;;0.82;0.65;;;7.70;99.90;;;;;;4403332;32;20159;-65
2023/02/22 07:18:40;;;;;;;1.25;1.15;;;7.70;99.90;;;;;;4387390;32;20085;-63
2023/02/22 07:21:06;;;;;;;0.70;0.70;;;7.70;99.90;;;;;;4390357;32;20340;-64
2023/02/22 07:23:32;;;;;;;1.77;1.37;;;7.80;99.90;;;;;;4365262;32;20746;-65
2023/02/22 07:26:00;;;;;;;7.37;2.05;;;7.80;99.90;;;;;;4372254;32;20081;-65
2023/02/22 07:28:25;;;;;;;2.33;1.20;;;7.80;99.90;;;;;;4374372;32;20189;-64
2023/02/22 07:30:51;;;;;;;0.80;0.80;;;7.80;99.90;;;;;;4378584;32;20089;-64
2023/02/22 07:33:16;;;;;;;1.52;1.35;;;7.90;99.90;;;;;;4386328;32;20819;-65
2023/02/22 07:35:45;;;;;;;1.70;1.58;;;8.00;99.90;;;;;;4389837;32;20117;-65
2023/02/22 07:38:12;;;;;;;1.30;1.17;;;7.90;99.90;;;;;;4372325;32;20595;-65
2023/02/22 07:40:38;;;;;;;1.15;1.00;;;8.00;99.90;;;;;;4390764;32;22561;-65
2023/02/22 07:43:13;;;;;;;1.95;0.77;;;8.00;99.90;;;;;;4366589;32;20069;-65
2023/02/22 07:45:39;;;;;;;0.70;0.70;;;8.00;99.90;;;;;;4388030;32;20092;-64
2023/02/22 07:48:05;;;;;;;3.40;1.80;;;8.10;99.90;;;;;;4369657;32;20681;-66
2023/02/22 07:50:34;;;;;;;4.68;0.88;;;8.10;99.90;;;;;;4393726;32;20157;-65
2023/02/22 07:53:02;;;;;;;0.70;0.70;;;8.20;99.90;;;;;;4382666;32;20467;-65
2023/02/22 07:55:29;;;;;;;2.45;0.90;;;8.10;99.90;;;;;;4379118;32;20084;-65
2023/02/22 07:57:57;;;;;;;0.60;0.60;;;8.20;99.90;;;;;;4401112;32;20896;-65
2023/02/22 08:00:26;;;;;;;1.25;1.15;;;8.20;99.90;;;;;;4383753;32;20689;-65
2023/02/22 08:02:52;;;;;;;11.70;1.50;;;8.10;99.90;;;;;;4364535;32;20769;-65
2023/02/22 08:05:19;;;;;;;0.40;0.40;;;8.10;99.90;;;;;;4374884;32;20080;-65
2023/02/22 08:07:44;;;;;;;2.08;0.93;;;8.10;99.90;;;;;;4386562;32;20150;-64
2023/02/22 08:10:12;;;;;;;3.70;1.55;;;8.10;99.90;;;;;;4375434;32;20084;-65
2023/02/22 08:12:37;;;;;;;0.57;0.57;;;8.20;99.90;;;;;;4358736;32;20090;-64
2023/02/22 08:15:04;;;;;;;2.55;1.42;;;8.10;99.90;;;;;;4376066;32;21256;-65
2023/02/22 08:17:30;;;;;;;9.65;3.35;;;8.20;99.90;;;;;;4384776;32;20114;-65
2023/02/22 08:19:55;;;;;;;1.17;1.00;;;8.30;99.90;;;;;;4385183;32;20776;-65
2023/02/22 08:22:22;;;;;;;8.13;2.50;;;8.20;99.90;;;;;;4376843;32;20097;-63
2023/02/22 08:24:48;;;;;;;0.80;0.80;;;8.20;99.90;;;;;;4365406;32;20093;-64
2023/02/22 08:27:13;;;;;;;1.10;1.10;;;8.20;99.90;;;;;;4378556;32;20599;-65
2023/02/22 08:29:39;;;;;;;1.62;1.52;;;8.30;99.90;;;;;;4381263;32;20081;-65
2023/02/22 08:32:05;;;;;;;7.32;2.60;;;8.40;99.90;;;;;;4375547;32;20105;-65
2023/02/22 08:34:32;;;;;;;1.83;1.73;;;8.30;99.90;;;;;;4375924;32;20139;-65
2023/02/22 08:36:57;;;;;;;9.77;1.48;;;8.20;99.90;;;;;;4387483;32;21854;-64
2023/02/22 08:39:23;;;;;;;5.18;0.90;;;8.20;99.90;;;;;;4376391;32;20552;-62
2023/02/22 08:41:48;;;;;;;0.57;0.57;;;8.30;99.90;;;;;;4397809;32;20213;-65
2023/02/22 08:44:14;;;;;;;0.70;0.70;;;8.30;99.90;;;;;;4394219;32;20775;-64
2023/02/22 08:46:39;;;;;;;1.15;1.05;;;8.40;99.90;;;;;;4391813;32;21030;-65
2023/02/22 08:49:07;;;;;;;1.42;1.33;;;8.40;99.90;;;;;;4375440;32;20124;-64
2023/02/22 08:51:35;;;;;;;5.60;1.70;;;8.40;99.90;;;;;;4368012;32;20171;-65
2023/02/22 08:54:02;;;;;;;3.03;2.05;;;8.40;99.90;;;;;;4360783;32;21442;-65
2023/02/22 08:56:28;;;;;;;0.62;0.60;;;8.40;99.90;;;;;;4385514;32;20170;-65
2023/02/22 08:58:56;;;;;;;0.60;0.60;;;8.50;99.90;;;;;;4388086;32;20905;-64
2023/02/22 09:01:23;;;;;;;0.60;0.60;;;8.50;99.90;;;;;;4364268;32;20944;-64
2023/02/22 09:03:49;;;;;;;1.65;1.17;;;8.50;99.90;;;;;;4380676;32;20541;-64
2023/02/22 09:06:15;;;;;;;5.00;2.47;;;8.50;99.90;;;;;;4377148;32;20069;-65
2023/02/22 09:08:40;;;;;;;0.90;0.90;;;8.50;99.90;;;;;;4368883;32;20089;-64
2023/02/22 09:11:06;;;;;;;1.15;1.05;;;8.50;99.90;;;;;;4373019;32;20081;-64
2023/02/22 09:13:31;;;;;;;0.47;0.47;;;8.50;99.90;;;;;;4389765;32;20104;-65
2023/02/22 09:15:57;;;;;;;0.65;0.65;;;8.60;99.90;;;;;;4387729;32;20069;-64
2023/02/22 09:18:22;;;;;;;0.40;0.40;;;8.70;99.90;;;;;;4384831;32;20089;-65
2023/02/22 09:20:48;;;;;;;4.32;1.83;;;8.80;99.90;;;;;;4391418;32;20496;-65
2023/02/22 09:23:13;;;;;;;3.17;1.50;;;8.70;99.90;;;;;;4387480;32;20253;-65
2023/02/22 09:25:39;;;;;;;3.33;2.55;;;8.70;99.90;;;;;;4378605;32;20184;-65
2023/02/22 09:28:05;;;;;;;0.75;0.75;;;8.70;99.90;;;;;;4372062;32;20118;-65
2023/02/22 09:30:33;;;;;;;0.77;0.77;;;8.70;99.90;;;;;;4386534;32;20093;-65
2023/02/22 09:33:01;;;;;;;0.43;0.43;;;8.80;99.90;;;;;;4375544;32;20803;-65
2023/02/22 09:35:27;;;;;;;10.80;2.15;;;9.00;99.90;;;;;;4386304;32;20559;-65
2023/02/22 09:37:56;;;;;;;9.80;1.45;;;9.00;99.90;;;;;;4377610;32;20098;-65
2023/02/22 09:40:24;;;;;;;3.80;1.00;;;9.00;99.90;;;;;;4368347;32;20227;-64
2023/02/22 09:43:18;;;;;;;0.57;0.57;;;9.00;99.90;;;;;;4377371;32;20702;-65
2023/02/22 09:46:05;;;;;;;9.30;2.28;;;9.10;99.90;;;;;;4367357;32;20090;-64
2023/02/22 09:48:35;;;;;;;10.60;1.80;;;9.00;99.90;;;;;;4371059;32;20113;-64
2023/02/22 09:51:06;;;;;;;2.33;1.75;;;9.00;99.90;;;;;;4381908;32;20361;-64
2023/02/22 09:53:40;;;;;;;6.18;1.17;;;9.10;99.90;;;;;;4389120;32;20105;-65
2023/02/22 09:56:09;;;;;;;2.12;1.25;;;9.10;99.90;;;;;;4381563;32;20182;-63
2023/02/22 09:58:41;;;;;;;2.35;1.00;;;9.20;99.90;;;;;;4389136;32;20161;-65
2023/02/22 10:01:31;;;;;;;1.37;0.93;;;9.30;99.90;;;;;;4377286;32;20094;-64
2023/02/22 10:04:08;;;;;;;1.40;0.80;;;9.30;99.90;;;;;;4381369;32;20085;-64
2023/02/22 10:06:35;;;;;;;3.67;1.48;;;9.30;99.90;;;;;;4381192;32;21329;-65
2023/02/22 10:09:06;;;;;;;0.50;0.50;;;9.20;99.90;;;;;;4388326;32;20105;-65
2023/02/22 10:11:57;;;;;;;2.12;1.37;;;9.20;99.90;;;;;;4386637;32;20097;-64
2023/02/22 10:14:37;;;;;;;8.93;1.02;;;9.10;99.90;;;;;;4384017;32;20105;-64
2023/02/22 10:17:16;;;;;;;2.03;1.83;;;9.30;99.90;;;;;;4399905;32;20109;-65
2023/02/22 10:20:06;;;;;;;0.40;0.40;;;9.30;99.90;;;;;;4390838;32;20109;-65
2023/02/22 10:22:38;;;;;;;2.30;0.93;;;9.20;99.90;;;;;;4385288;32;20096;-65
2023/02/22 10:25:24;;;;;;;0.75;0.62;;;9.30;99.90;;;;;;4379443;32;20171;-65
2023/02/22 10:27:59;;;;;;;1.77;1.02;;;9.30;99.90;;;;;;4387597;32;20101;-65
2023/02/22 10:30:31;;;;;;;1.10;0.60;;;9.20;99.90;;;;;;4382317;32;22003;-65
2023/02/22 10:33:13;;;;;;;20.48;0.70;;;9.30;99.90;;;;;;4375824;32;20278;-65
2023/02/22 10:35:40;;;;;;;0.68;0.50;;;9.40;99.90;;;;;;4367978;32;20088;-64
2023/02/22 10:38:25;;;;;;;0.40;0.40;;;9.50;99.90;;;;;;4356037;32;20162;-64
2023/02/22 10:40:58;;;;;;;4.22;1.48;;;9.50;99.90;;;;;;4355159;32;20118;-64
2023/02/22 10:43:24;;;;;;;2.80;1.40;;;9.60;99.90;;;;;;4359701;32;20094;-65
2023/02/22 10:45:54;;;;;;;0.40;0.40;;;9.60;99.90;;;;;;4375108;32;20117;-65
2023/02/22 10:48:22;;;;;;;3.20;0.60;;;9.70;99.90;;;;;;4372259;32;20404;-64
2023/02/22 10:50:49;;;;;;;0.80;0.80;;;9.70;99.90;;;;;;4371758;32;20173;-64
2023/02/22 10:53:15;;;;;;;3.00;1.75;;;9.70;99.90;;;;;;4366826;32;20117;-63
2023/02/22 10:56:04;;;;;;;6.18;1.45;;;9.70;99.90;;;;;;4362187;32;20820;-64
2023/02/22 10:58:40;;;;;;;0.50;0.50;;;9.70;99.90;;;;;;4358693;32;20159;-65
2023/02/22 11:01:28;;;;;;;2.47;1.37;;;9.70;99.90;;;;;;4379064;32;20155;-64
2023/02/22 11:04:01;;;;;;;4.62;1.98;;;9.60;99.90;;;;;;4358035;32;20101;-64
2023/02/22 11:06:27;;;;;;;0.30;0.30;;;9.40;99.90;;;;;;4367700;32;20177;-64
2023/02/22 11:09:05;;;;;;;6.40;1.33;;;9.30;99.90;;;;;;4367413;32;20145;-65
2023/02/22 11:11:32;;;;;;;0.75;0.75;;;9.50;99.90;;;;;;4364489;32;20890;-64
2023/02/22 11:14:01;;;;;;;0.50;0.50;;;9.60;99.90;;;;;;4380927;32;20550;-64
2023/02/22 11:16:36;;;;;;;0.47;0.47;;;9.70;99.90;;;;;;4357326;32;20170;-62
2023/02/22 11:19:22;;;;;;;0.50;0.50;;;9.80;99.90;;;;;;4359153;32;20834;-64
2023/02/22 11:21:51;;;;;;;1.55;1.00;;;9.70;99.90;;;;;;4372525;32;20804;-64
2023/02/22 11:24:19;;;;;;;4.90;1.20;;;9.70;99.90;;;;;;4404132;32;20089;-64
2023/02/22 11:26:58;;;;;;;0.82;0.82;;;9.80;99.90;;;;;;4408876;32;20112;-63
2023/02/22 11:29:31;;;;;;;0.77;0.77;;;9.80;99.90;;;;;;4407102;32;20710;-65
2023/02/22 11:32:00;;;;;;;0.40;0.40;;;9.80;99.90;;;;;;4384486;32;20064;-65
2023/02/22 11:34:33;;;;;;;0.90;0.65;;;9.80;99.90;;;;;;4402365;32;20089;-65
2023/02/22 11:37:18;;;;;;;0.90;0.90;;;9.90;99.90;;;;;;4401641;32;20840;-62
2023/02/22 11:39:44;;;;;;;0.35;0.35;;;9.90;99.90;;;;;;4405102;32;20184;-65
2023/02/22 11:42:27;;;;;;;3.85;1.30;;;9.90;99.90;;;;;;4402529;32;118301;-65
2023/02/22 11:45:14;;;;;;;3.62;2.05;;;9.80;99.90;;;;;;4389628;32;20105;-64
2023/02/22 11:48:00;;;;;;;1.37;0.93;;;10.00;99.90;;;;;;4396256;32;20099;-63
2023/02/22 11:50:37;;;;;;;1.55;1.12;;;9.90;99.90;;;;;;4402636;32;20112;-65
2023/02/22 11:53:24;;;;;;;0.75;0.75;;;9.80;99.90;;;;;;4416341;32;20434;-65
2023/02/22 11:56:17;;;;;;;0.50;0.50;;;9.80;99.90;;;;;;4379355;32;20977;-65
2023/02/22 11:58:53;;;;;;;1.75;0.90;;;9.90;99.90;;;;;;4368165;32;20183;-66
2023/02/22 12:01:28;;;;;;;4.68;1.05;;;10.00;99.90;;;;;;4374484;32;21459;-65
2023/02/22 12:04:26;;;;;;;4.37;1.52;;;10.00;99.90;;;;;;4370163;32;20548;-66
2023/02/22 12:07:21;;;;;;;0.40;0.40;;;9.90;99.90;;;;;;4379755;32;20092;-65
2023/02/22 12:10:07;;;;;;;1.75;0.60;;;10.00;99.90;;;;;;4378674;32;20122;-65
2023/02/22 12:12:51;;;;;;;4.40;1.12;;;10.10;99.90;;;;;;4377365;32;20242;-65
2023/02/22 12:15:41;;;;;;;1.00;0.60;;;10.10;99.90;;;;;;4360121;32;20203;-64
2023/02/22 12:18:22;;;;;;;14.55;0.75;;;9.90;99.90;;;;;;4369942;32;20113;-64
2023/02/22 12:20:56;;;;;;;1.20;1.05;;;9.90;99.90;;;;;;4393727;32;20252;-62
2023/02/22 12:23:32;;;;;;;0.73;0.73;;;10.00;99.90;;;;;;4402861;32;20110;-64
2023/02/22 12:26:04;;;;;;;6.75;1.95;;;9.80;99.90;;;;;;4402407;32;20097;-64
2023/02/22 12:28:35;;;;;;;0.98;0.85;;;9.70;99.90;;;;;;4407692;32;20132;-65
2023/02/22 12:31:07;;;;;;;7.20;1.10;;;9.80;99.90;;;;;;4381503;32;21123;-65
2023/02/22 12:33:45;;;;;;;5.35;1.37;;;9.90;99.90;;;;;;4390162;32;20690;-64
2023/02/22 12:36:14;;;;;;;1.10;0.95;;;9.90;99.90;;;;;;4381178;32;20110;-65
2023/02/22 12:38:45;;;;;;;3.60;1.85;;;10.00;99.90;;;;;;4370044;32;20157;-65
2023/02/22 12:41:14;;;;;;;;;;;10.10;99.90;;;;;;4387160;32;21018;-64
2023/02/22 12:43:50;;;;;;;52.15;5.85;;;10.20;99.90;;;;;;4380419;32;20492;-65
2023/02/22 12:46:21;;;;;;;2.12;0.73;;;10.30;99.90;;;;;;4366081;32;20483;-64
2023/02/22 12:49:06;;;;;;;;;;;10.30;99.90;;;;;;4389394;32;20490;-66
2023/02/22 12:51:44;;;;;;;0.85;0.73;;;10.30;99.90;;;;;;4390414;32;19987;-66
2023/02/22 12:54:19;;;;;;;18.40;1.73;;;10.20;99.90;;;;;;4401154;32;20165;-64
2023/02/22 12:56:52;;;;;;;0.95;0.68;;;10.10;99.90;;;;;;4408222;32;21434;-66
2023/02/22 12:59:28;;;;;;;18.42;1.87;;;10.10;99.90;;;;;;4410125;32;20089;-64
2023/02/22 13:01:59;;;;;;;0.62;0.62;;;10.10;99.90;;;;;;4390257;32;20160;-63
2023/02/22 13:04:25;;;;;;;13.25;0.70;;;10.10;99.90;;;;;;4392509;32;20592;-63
2023/02/22 13:07:00;;;;;;;1.67;1.27;;;10.20;99.90;;;;;;4404607;32;20164;-65
2023/02/22 13:09:43;;;;;;;1.02;0.65;;;10.10;99.90;;;;;;4403072;32;20267;-65
2023/02/22 13:12:33;;;;;;;0.60;0.60;;;10.10;99.90;;;;;;4397188;32;20127;-64